Observation data for Knox City on 11/22/2019      Previous  Date  Next       Current Mesonet Observations  Soil Data  Daily Summary Page  Observations in Plain Language
KKN1 220600Z 35010KT 07/06 A301 RMK A01 T00660060  RH  098%=      5-min Rain = 0
KKN1 220605Z 34010G16KT 07/06 A3012 RMK A01 T00660060  RH  098%=      5-min Rain = 0
KKN1 220610Z 35011KT 07/06 A3012 RMK A01 T00660059  RH  098%=      5-min Rain = 0
KKN1 220615Z 30010G15KT 07/06 A3015 RMK A01 T00660060  RH  098%=      5-min Rain = 0.06
KKN1 220620Z 34009KT 07/06 A3014 RMK A01 T00650058  RH  098%=      5-min Rain = 0.02
KKN1 220625Z 00009G16KT 06/06 A3012 RMK A01 T00640058  RH  098%=      5-min Rain = 0.02
KKN1 220630Z 00010KT 06/06 A3011 RMK A01 T00640057  RH  097%=      5-min Rain = 0
KKN1 220635Z 00009KT 06/06 A3012 RMK A01 T00640057  RH  097%=      5-min Rain = 0
KKN1 220640Z 36009G16KT 06/06 A3012 RMK A01 T00640057  RH  097%=      5-min Rain = 0
KKN1 220645Z 36010KT 06/06 A3012 RMK A01 T00640056  RH  097%=      5-min Rain = 0
KKN1 220650Z 00010G15KT 06/06 A3013 RMK A01 T00630056  RH  097%=      5-min Rain = 0
KKN1 220655Z 35009KT 06/06 A3013 RMK A01 T00630056  RH  097%=      5-min Rain = 0
KKN1 220700Z 34011G17KT 06/06 A3014 RMK A01 T00630056  RH  097%=      5-min Rain = 0
KKN1 220705Z 34012KT 06/05 A3014 RMK A01 T00620054  RH  097%=      5-min Rain = 0
KKN1 220710Z 34010KT 06/06 A3015 RMK A01 T00630055  RH  097%=      5-min Rain = 0
KKN1 220715Z 01011G16KT 06/05 A3013 RMK A01 T00620054  RH  097%=      5-min Rain = 0
KKN1 220720Z 01010KT 06/05 A3012 RMK A01 T00620053  RH  096%=      5-min Rain = 0
KKN1 220725Z 36009KT 06/05 A3013 RMK A01 T00620054  RH  097%=      5-min Rain = 0
KKN1 220730Z 36008KT 06/06 A3013 RMK A01 T00620055  RH  097%=      5-min Rain = 0.03
KKN1 220735Z 36008KT 06/06 A3012 RMK A01 T00620055  RH  097%=      5-min Rain = 0.03
KKN1 220740Z 00010KT 06/06 A3012 RMK A01 T00610055  RH  098%=      5-min Rain = 0
KKN1 220745Z 01010KT 06/06 A3011 RMK A01 T00610055  RH  098%=      5-min Rain = 0
KKN1 220750Z 02011KT 06/06 A3011 RMK A01 T00610055  RH  098%=      5-min Rain = 0
KKN1 220755Z 02011G16KT 06/05 A301 RMK A01 T00600052  RH  097%=      5-min Rain = 0
KKN1 220800Z 02009KT 06/05 A3012 RMK A01 T00600051  RH  096%=      5-min Rain = 0
KKN1 220805Z 01009KT 06/05 A3012 RMK A01 T00600051  RH  096%=      5-min Rain = 0
KKN1 220810Z 01009KT 06/05 A3011 RMK A01 T00590051  RH  096%=      5-min Rain = 0
KKN1 220815Z 00009KT 06/05 A3012 RMK A01 T00590051  RH  096%=      5-min Rain = 0
KKN1 220820Z 36008KT 06/05 A3013 RMK A01 T00590051  RH  097%=      5-min Rain = 0
KKN1 220825Z 35007KT 06/05 A3013 RMK A01 T00590051  RH  097%=      5-min Rain = 0
KKN1 220830Z 35010KT 06/05 A3014 RMK A01 T00580051  RH  097%=      5-min Rain = 0
KKN1 220835Z 35009KT 06/05 A3014 RMK A01 T00580050  RH  097%=      5-min Rain = 0.01
KKN1 220840Z 36008KT 06/05 A3014 RMK A01 T00580050  RH  097%=      5-min Rain = 0
KKN1 220845Z 35010KT 06/05 A3014 RMK A01 T00580050  RH  096%=      5-min Rain = 0
KKN1 220850Z 36009KT 06/05 A3013 RMK A01 T00580049  RH  096%=      5-min Rain = 0
KKN1 220855Z 00010KT 06/05 A3013 RMK A01 T00580049  RH  096%=      5-min Rain = 0
KKN1 220900Z 00010KT 06/05 A3012 RMK A01 T00570048  RH  096%=      5-min Rain = 0
KKN1 220905Z 02009G15KT 06/05 A3012 RMK A01 T00570048  RH  096%=      5-min Rain = 0
KKN1 220910Z 02008KT 06/05 A3013 RMK A01 T00580048  RH  095%=      5-min Rain = 0
KKN1 220915Z 01009KT 06/05 A3013 RMK A01 T00580047  RH  094%=      5-min Rain = 0
KKN1 220920Z 01008KT 06/05 A3013 RMK A01 T00580047  RH  095%=      5-min Rain = 0
KKN1 220925Z 36008KT 06/05 A3013 RMK A01 T00570047  RH  095%=      5-min Rain = 0
KKN1 220930Z 00009G14KT 06/05 A3011 RMK A01 T00570047  RH  095%=      5-min Rain = 0
KKN1 220935Z 00009KT 06/05 A3011 RMK A01 T00560046  RH  095%=      5-min Rain = 0
KKN1 220940Z 02008KT 06/05 A3011 RMK A01 T00560045  RH  095%=      5-min Rain = 0
KKN1 220945Z 01007KT 06/04 A3012 RMK A01 T00550044  RH  094%=      5-min Rain = 0
KKN1 220950Z 03008KT 06/04 A3012 RMK A01 T00550042  RH  094%=      5-min Rain = 0
KKN1 220955Z 04008KT 06/04 A3012 RMK A01 T00550042  RH  093%=      5-min Rain = 0
KKN1 221000Z 04008KT 05/04 A3012 RMK A01 T00540041  RH  093%=      5-min Rain = 0
KKN1 221005Z 04009KT 05/04 A3011 RMK A01 T00540042  RH  093%=      5-min Rain = 0
KKN1 221010Z 04008KT 06/04 A301 RMK A01 T00550043  RH  094%=      5-min Rain = 0
KKN1 221015Z 05009KT 06/04 A301 RMK A01 T00550043  RH  094%=      5-min Rain = 0
KKN1 221020Z 05008KT 06/04 A301 RMK A01 T00550043  RH  094%=      5-min Rain = 0
KKN1 221025Z 05009KT 06/04 A301 RMK A01 T00550043  RH  094%=      5-min Rain = 0
KKN1 221030Z 05010KT 06/04 A3009 RMK A01 T00550042  RH  094%=      5-min Rain = 0
KKN1 221035Z 03008KT 05/04 A301 RMK A01 T00540043  RH  094%=      5-min Rain = 0
KKN1 221040Z 02008KT 05/04 A3011 RMK A01 T00540043  RH  094%=      5-min Rain = 0
KKN1 221045Z 35008KT 05/04 A3012 RMK A01 T00540043  RH  095%=      5-min Rain = 0
KKN1 221050Z 35008KT 05/04 A3013 RMK A01 T00530044  RH  095%=      5-min Rain = 0
KKN1 221055Z 34009KT 05/04 A3014 RMK A01 T00530044  RH  096%=      5-min Rain = 0
KKN1 221100Z 34009KT 05/05 A3014 RMK A01 T00540045  RH  096%=      5-min Rain = 0
KKN1 221105Z 34009KT 05/04 A3015 RMK A01 T00530044  RH  096%=      5-min Rain = 0
KKN1 221110Z 34009KT 05/04 A3015 RMK A01 T00530044  RH  096%=      5-min Rain = 0
KKN1 221115Z 34010KT 05/04 A3015 RMK A01 T00530043  RH  096%=      5-min Rain = 0
KKN1 221120Z 34011KT 05/04 A3015 RMK A01 T00530043  RH  095%=      5-min Rain = 0
KKN1 221125Z 34010KT 05/04 A3015 RMK A01 T00540044  RH  095%=      5-min Rain = 0
KKN1 221130Z 34012KT 05/04 A3015 RMK A01 T00540044  RH  095%=      5-min Rain = 0
KKN1 221135Z 35011KT 05/04 A3015 RMK A01 T00540042  RH  094%=      5-min Rain = 0
KKN1 221140Z 35011KT 05/04 A3015 RMK A01 T00540042  RH  094%=      5-min Rain = 0
KKN1 221145Z 34012KT 05/04 A3015 RMK A01 T00530041  RH  094%=      5-min Rain = 0
KKN1 221150Z 34013G19KT 05/04 A3015 RMK A01 T00520041  RH  094%=      5-min Rain = 0
KKN1 221155Z 35012KT 05/04 A3016 RMK A01 T00510040  RH  095%=      5-min Rain = 0
KKN1 221200Z 35012KT 05/04 A3016 RMK A01 T00500039  RH  094%=      5-min Rain = 0
KKN1 221205Z 35011KT 05/04 A3016 RMK A01 T00500038  RH  094%=      5-min Rain = 0
KKN1 221210Z 35012G17KT 05/04 A3017 RMK A01 T00490036  RH  093%=      5-min Rain = 0
KKN1 221215Z 35013KT 05/03 A3017 RMK A01 T00480034  RH  093%=      5-min Rain = 0
KKN1 221220Z 35013KT 05/03 A3017 RMK A01 T00470032  RH  092%=      5-min Rain = 0
KKN1 221225Z 35014KT 05/03 A3017 RMK A01 T00460032  RH  092%=      5-min Rain = 0
KKN1 221230Z 36013G18KT 05/03 A3017 RMK A01 T00460031  RH  092%=      5-min Rain = 0
KKN1 221235Z 35011KT 05/03 A3017 RMK A01 T00460032  RH  092%=      5-min Rain = 0
KKN1 221240Z 36011KT 05/03 A3017 RMK A01 T00460032  RH  092%=      5-min Rain = 0
KKN1 221245Z 36010KT 05/03 A3017 RMK A01 T00460032  RH  092%=      5-min Rain = 0
KKN1 221250Z 36010KT 05/03 A3017 RMK A01 T00460032  RH  092%=      5-min Rain = 0
KKN1 221255Z 35009KT 05/03 A3018 RMK A01 T00460033  RH  092%=      5-min Rain = 0
KKN1 221300Z 36008KT 05/03 A3018 RMK A01 T00460033  RH  093%=      5-min Rain = 0
KKN1 221305Z 36008KT 05/03 A3018 RMK A01 T00470033  RH  092%=      5-min Rain = 0
KKN1 221310Z 00007KT 05/03 A3019 RMK A01 T00470033  RH  092%=      5-min Rain = 0
KKN1 221315Z 35007KT 05/03 A3019 RMK A01 T00470033  RH  093%=      5-min Rain = 0
KKN1 221320Z 35007KT 05/03 A3019 RMK A01 T00460032  RH  092%=      5-min Rain = 0
KKN1 221325Z 35006KT 05/03 A3019 RMK A01 T00450032  RH  093%=      5-min Rain = 0
KKN1 221330Z 35006KT 05/03 A3019 RMK A01 T00450032  RH  093%=      5-min Rain = 0
KKN1 221335Z 34006KT 05/03 A3019 RMK A01 T00460033  RH  093%=      5-min Rain = 0
KKN1 221340Z 34006KT 05/03 A3019 RMK A01 T00470034  RH  093%=      5-min Rain = 0
KKN1 221345Z 34006KT 05/04 A3019 RMK A01 T00470035  RH  093%=      5-min Rain = 0
KKN1 221350Z 34007KT 05/04 A3019 RMK A01 T00480036  RH  094%=      5-min Rain = 0
KKN1 221355Z 34008KT 05/04 A3019 RMK A01 T00480035  RH  093%=      5-min Rain = 0
KKN1 221400Z 34008G13KT 05/04 A3019 RMK A01 T00490036  RH  093%=      5-min Rain = 0
KKN1 221405Z 34009KT 05/04 A3019 RMK A01 T00490036  RH  093%=      5-min Rain = 0
KKN1 221410Z 34008KT 05/04 A3019 RMK A01 T00500037  RH  093%=      5-min Rain = 0
KKN1 221415Z 34009KT 05/04 A3019 RMK A01 T00500037  RH  093%=      5-min Rain = 0
KKN1 221420Z 34008KT 05/04 A3019 RMK A01 T00500037  RH  094%=      5-min Rain = 0
KKN1 221425Z 34006KT 05/04 A3019 RMK A01 T00500038  RH  094%=      5-min Rain = 0
KKN1 221430Z 34007KT 05/04 A3019 RMK A01 T00500038  RH  094%=      5-min Rain = 0
KKN1 221435Z 35007KT 05/04 A3019 RMK A01 T00500039  RH  094%=      5-min Rain = 0
KKN1 221440Z 36008KT 05/04 A3019 RMK A01 T00500037  RH  093%=      5-min Rain = 0
KKN1 221445Z 35010KT 05/04 A3019 RMK A01 T00500035  RH  092%=      5-min Rain = 0
KKN1 221450Z 36009KT 05/03 A302 RMK A01 T00500034  RH  091%=      5-min Rain = 0
KKN1 221455Z 36010KT 05/04 A302 RMK A01 T00530035  RH  090%=      5-min Rain = 0
KKN1 221500Z 36010KT 05/03 A302 RMK A01 T00530032  RH  088%=      5-min Rain = 0
KKN1 221505Z 34010KT 05/03 A302 RMK A01 T00520032  RH  089%=      5-min Rain = 0
KKN1 221510Z 34010KT 05/03 A302 RMK A01 T00500030  RH  089%=      5-min Rain = 0
KKN1 221515Z 34009KT 05/03 A3021 RMK A01 T00500030  RH  089%=      5-min Rain = 0
KKN1 221520Z 34010KT 05/03 A3021 RMK A01 T00500030  RH  089%=      5-min Rain = 0
KKN1 221525Z 34011KT 05/03 A3022 RMK A01 T00490028  RH  088%=      5-min Rain = 0
KKN1 221530Z 34010KT 05/03 A3022 RMK A01 T00490028  RH  087%=      5-min Rain = 0
KKN1 221535Z 34008KT 05/03 A3022 RMK A01 T00500028  RH  087%=      5-min Rain = 0
KKN1 221540Z 35010KT 05/03 A3022 RMK A01 T00500028  RH  087%=      5-min Rain = 0
KKN1 221545Z 36010KT 05/03 A3022 RMK A01 T00490028  RH  088%=      5-min Rain = 0
KKN1 221550Z 35009KT 05/03 A3022 RMK A01 T00500030  RH  088%=      5-min Rain = 0
KKN1 221555Z 35008KT 05/03 A3022 RMK A01 T00510029  RH  087%=      5-min Rain = 0
KKN1 221600Z 34007KT 05/03 A3023 RMK A01 T00500028  RH  087%=      5-min Rain = 0
KKN1 221605Z 34008KT 05/03 A3022 RMK A01 T00510030  RH  088%=      5-min Rain = 0
KKN1 221610Z 34010G15KT 05/03 A3023 RMK A01 T00510030  RH  088%=      5-min Rain = 0
KKN1 221615Z 34010G15KT 05/03 A3022 RMK A01 T00490028  RH  088%=      5-min Rain = 0
KKN1 221620Z 35010G15KT 05/03 A3022 RMK A01 T00490026  RH  087%=      5-min Rain = 0
KKN1 221625Z 34011KT 05/03 A3022 RMK A01 T00500025  RH  086%=      5-min Rain = 0
KKN1 221630Z 33010KT 05/02 A3022 RMK A01 T00500024  RH  085%=      5-min Rain = 0
KKN1 221635Z 34008KT 05/03 A3022 RMK A01 T00500025  RH  085%=      5-min Rain = 0
KKN1 221640Z 35009KT 05/03 A3022 RMK A01 T00520027  RH  085%=      5-min Rain = 0
KKN1 221645Z 35009G15KT 05/03 A3022 RMK A01 T00520026  RH  085%=      5-min Rain = 0
KKN1 221650Z 36011KT 05/03 A3022 RMK A01 T00530026  RH  084%=      5-min Rain = 0
KKN1 221655Z 36010KT 05/03 A3022 RMK A01 T00520025  RH  084%=      5-min Rain = 0
KKN1 221700Z 35009KT 05/03 A3022 RMK A01 T00520025  RH  084%=      5-min Rain = 0
KKN1 221705Z 33010KT 06/03 A3021 RMK A01 T00550026  RH  083%=      5-min Rain = 0
KKN1 221710Z 34007KT 06/03 A3021 RMK A01 T00590025  RH  081%=      5-min Rain = 0
KKN1 221715Z 33010KT 06/03 A3021 RMK A01 T00600026  RH  080%=      5-min Rain = 0
KKN1 221720Z 33009KT 06/03 A3021 RMK A01 T00590027  RH  081%=      5-min Rain = 0
KKN1 221725Z 34008KT 06/03 A3021 RMK A01 T00600029  RH  082%=      5-min Rain = 0
KKN1 221730Z 34008G13KT 06/03 A302 RMK A01 T00600029  RH  082%=      5-min Rain = 0
KKN1 221735Z 34010G15KT 06/03 A302 RMK A01 T00590028  RH  081%=      5-min Rain = 0
KKN1 221740Z 34010KT 06/03 A302 RMK A01 T00600028  RH  081%=      5-min Rain = 0
KKN1 221745Z 32009G14KT 06/03 A302 RMK A01 T00610026  RH  080%=      5-min Rain = 0
KKN1 221750Z 33008KT 07/03 A302 RMK A01 T00670029  RH  078%=      5-min Rain = 0
KKN1 221755Z 33008KT 07/03 A302 RMK A01 T00670030  RH  078%=      5-min Rain = 0
KKN1 221800Z 31009KT 07/03 A3019 RMK A01 T00680028  RH  077%=      5-min Rain = 0
KKN1 221805Z 31010KT 07/03 A3019 RMK A01 T00700031  RH  077%=      5-min Rain = 0
KKN1 221810Z 33010G15KT 07/03 A3019 RMK A01 T00690029  RH  077%=      5-min Rain = 0
KKN1 221815Z 32009KT 07/03 A3019 RMK A01 T00690029  RH  077%=      5-min Rain = 0
KKN1 221820Z 31010KT 07/03 A3018 RMK A01 T00700030  RH  077%=      5-min Rain = 0
KKN1 221825Z 30010KT 07/03 A3018 RMK A01 T00710030  RH  077%=      5-min Rain = 0
KKN1 221830Z 31008KT 07/03 A3018 RMK A01 T00710031  RH  077%=      5-min Rain = 0
KKN1 221835Z 31007KT 07/03 A3017 RMK A01 T00720029  RH  075%=      5-min Rain = 0
KKN1 221840Z 31005KT 07/03 A3017 RMK A01 T00720028  RH  075%=      5-min Rain = 0
KKN1 221845Z 31007KT 07/03 A3017 RMK A01 T00730030  RH  075%=      5-min Rain = 0
KKN1 221850Z 32007KT 08/03 A3016 RMK A01 T00750031  RH  075%=      5-min Rain = 0
KKN1 221855Z 31007KT 08/03 A3016 RMK A01 T00760030  RH  074%=      5-min Rain = 0
KKN1 221900Z 33006KT 08/03 A3016 RMK A01 T00760029  RH  073%=      5-min Rain = 0
KKN1 221905Z 33007KT 08/03 A3015 RMK A01 T00780029  RH  072%=      5-min Rain = 0
KKN1 221910Z 33007KT 08/03 A3015 RMK A01 T00780028  RH  072%=      5-min Rain = 0
KKN1 221915Z 34006KT 08/03 A3015 RMK A01 T00790029  RH  072%=      5-min Rain = 0
KKN1 221920Z 33008KT 08/03 A3015 RMK A01 T00810030  RH  072%=      5-min Rain = 0
KKN1 221925Z 34006G11KT 08/03 A3015 RMK A01 T00800029  RH  071%=      5-min Rain = 0
KKN1 221930Z 34007KT 08/03 A3015 RMK A01 T00800028  RH  071%=      5-min Rain = 0
KKN1 221935Z 34006KT 08/03 A3015 RMK A01 T00810030  RH  071%=      5-min Rain = 0
KKN1 221940Z 32008KT 08/03 A3015 RMK A01 T00810028  RH  070%=      5-min Rain = 0
KKN1 221945Z 33007KT 08/03 A3014 RMK A01 T00790028  RH  071%=      5-min Rain = 0
KKN1 221950Z 34007KT 08/03 A3014 RMK A01 T00800029  RH  072%=      5-min Rain = 0
KKN1 221955Z 35007G14KT 08/03 A3014 RMK A01 T00810028  RH  071%=      5-min Rain = 0
KKN1 222000Z 31007KT 08/03 A3014 RMK A01 T00800026  RH  070%=      5-min Rain = 0
KKN1 222005Z 33004KT 08/03 A3014 RMK A01 T00810027  RH  070%=      5-min Rain = 0
KKN1 222010Z 34006KT 08/03 A3013 RMK A01 T00820027  RH  070%=      5-min Rain = 0
KKN1 222015Z 35006KT 08/03 A3013 RMK A01 T00820027  RH  069%=      5-min Rain = 0
KKN1 222020Z 36006KT 08/03 A3013 RMK A01 T00810029  RH  071%=      5-min Rain = 0
KKN1 222025Z 36006KT 08/03 A3013 RMK A01 T00810029  RH  071%=      5-min Rain = 0
KKN1 222030Z 35007KT 08/03 A3013 RMK A01 T00820028  RH  070%=      5-min Rain = 0
KKN1 222035Z 01006KT 08/03 A3013 RMK A01 T00790029  RH  072%=      5-min Rain = 0
KKN1 222040Z 02006KT 08/03 A3013 RMK A01 T00790029  RH  072%=      5-min Rain = 0
KKN1 222045Z 36006KT 08/03 A3012 RMK A01 T00800030  RH  072%=      5-min Rain = 0
KKN1 222050Z 35007KT 08/03 A3012 RMK A01 T00800029  RH  071%=      5-min Rain = 0
KKN1 222055Z 35006KT 08/03 A3012 RMK A01 T00810031  RH  072%=      5-min Rain = 0
KKN1 222100Z 36007KT 08/03 A3012 RMK A01 T00810031  RH  072%=      5-min Rain = 0
KKN1 222105Z 35007KT 08/03 A3012 RMK A01 T00800029  RH  072%=      5-min Rain = 0
KKN1 222110Z 00007KT 08/03 A3012 RMK A01 T00790028  RH  072%=      5-min Rain = 0
KKN1 222115Z 01007KT 08/03 A3012 RMK A01 T00790029  RH  072%=      5-min Rain = 0
KKN1 222120Z 02009KT 08/03 A3012 RMK A01 T00780028  RH  072%=      5-min Rain = 0
KKN1 222125Z 01008KT 08/03 A3012 RMK A01 T00770028  RH  072%=      5-min Rain = 0
KKN1 222130Z 01008KT 08/03 A3012 RMK A01 T00770029  RH  073%=      5-min Rain = 0
KKN1 222135Z 02008KT 08/03 A3012 RMK A01 T00760028  RH  073%=      5-min Rain = 0
KKN1 222140Z 02007KT 08/03 A3012 RMK A01 T00760030  RH  074%=      5-min Rain = 0
KKN1 222145Z 02007KT 08/03 A3012 RMK A01 T00770030  RH  074%=      5-min Rain = 0
KKN1 222150Z 02007KT 08/03 A3012 RMK A01 T00760029  RH  074%=      5-min Rain = 0
KKN1 222155Z 03007KT 08/03 A3012 RMK A01 T00750030  RH  074%=      5-min Rain = 0
KKN1 222200Z 02007KT 08/03 A3011 RMK A01 T00750030  RH  074%=      5-min Rain = 0
KKN1 222205Z 02007KT 08/03 A3011 RMK A01 T00750029  RH  074%=      5-min Rain = 0
KKN1 222210Z 03006KT 08/03 A3011 RMK A01 T00760030  RH  074%=      5-min Rain = 0
KKN1 222215Z 02005KT 08/03 A3011 RMK A01 T00770030  RH  074%=      5-min Rain = 0
KKN1 222220Z 03006KT 08/03 A3011 RMK A01 T00760029  RH  073%=      5-min Rain = 0
KKN1 222225Z 02006KT 08/03 A301 RMK A01 T00770032  RH  074%=      5-min Rain = 0
KKN1 222230Z 02008KT 08/03 A3011 RMK A01 T00770031  RH  074%=      5-min Rain = 0
KKN1 222235Z 03009KT 07/03 A3011 RMK A01 T00730029  RH  075%=      5-min Rain = 0
KKN1 222240Z 03008KT 07/03 A3011 RMK A01 T00720030  RH  076%=      5-min Rain = 0
KKN1 222245Z 03008KT 07/03 A3011 RMK A01 T00720030  RH  076%=      5-min Rain = 0
KKN1 222250Z 03008KT 07/03 A3011 RMK A01 T00710030  RH  077%=      5-min Rain = 0
KKN1 222255Z 03007KT 07/03 A3011 RMK A01 T00700028  RH  076%=      5-min Rain = 0
KKN1 222300Z 03007KT 07/03 A3011 RMK A01 T00700031  RH  077%=      5-min Rain = 0
KKN1 222305Z 03007KT 07/03 A3011 RMK A01 T00690029  RH  077%=      5-min Rain = 0
KKN1 222310Z 04007KT 07/03 A3011 RMK A01 T00690031  RH  078%=      5-min Rain = 0
KKN1 222315Z 04006KT 07/03 A3011 RMK A01 T00690030  RH  078%=      5-min Rain = 0
KKN1 222320Z 03007KT 07/03 A3011 RMK A01 T00690029  RH  077%=      5-min Rain = 0
KKN1 222325Z 04007KT 07/03 A301 RMK A01 T00680029  RH  077%=      5-min Rain = 0
KKN1 222330Z 04008KT 07/03 A3011 RMK A01 T00670029  RH  078%=      5-min Rain = 0
KKN1 222335Z 04009KT 07/03 A3011 RMK A01 T00660030  RH  079%=      5-min Rain = 0
KKN1 222340Z 05008KT 07/03 A3011 RMK A01 T00650030  RH  079%=      5-min Rain = 0
KKN1 222345Z 05008KT 07/03 A3011 RMK A01 T00650029  RH  079%=      5-min Rain = 0
KKN1 222350Z 05007KT 06/03 A3011 RMK A01 T00640030  RH  080%=      5-min Rain = 0
KKN1 222355Z 06007KT 06/03 A3011 RMK A01 T00640030  RH  080%=      5-min Rain = 0
KKN1 230000Z 07006KT 06/03 A301 RMK A01 T00630029  RH  080%=      5-min Rain = 0
KKN1 230005Z 07005KT 06/03 A3011 RMK A01 T00630031  RH  081%=      5-min Rain = 0
KKN1 230010Z 07005KT 06/03 A3011 RMK A01 T00630029  RH  081%=      5-min Rain = 0
KKN1 230015Z 07006KT 06/03 A3011 RMK A01 T00630029  RH  080%=      5-min Rain = 0
KKN1 230020Z 07006KT 06/03 A3011 RMK A01 T00620029  RH  081%=      5-min Rain = 0
KKN1 230025Z 08006KT 06/03 A3011 RMK A01 T00620029  RH  081%=      5-min Rain = 0
KKN1 230030Z 08006KT 06/03 A3011 RMK A01 T00610029  RH  081%=      5-min Rain = 0
KKN1 230035Z 08006KT 06/03 A3011 RMK A01 T00610029  RH  081%=      5-min Rain = 0
KKN1 230040Z 08006KT 06/03 A3011 RMK A01 T00600029  RH  081%=      5-min Rain = 0
KKN1 230045Z 09006KT 06/03 A3011 RMK A01 T00600029  RH  082%=      5-min Rain = 0
KKN1 230050Z 09006KT 06/03 A3011 RMK A01 T00600029  RH  082%=      5-min Rain = 0
KKN1 230055Z 08005KT 06/03 A3011 RMK A01 T00600029  RH  082%=      5-min Rain = 0
KKN1 230100Z 09005KT 06/03 A3011 RMK A01 T00600029  RH  082%=      5-min Rain = 0
KKN1 230105Z 09004KT 06/03 A3012 RMK A01 T00600028  RH  081%=      5-min Rain = 0
KKN1 230110Z 10005KT 06/03 A3012 RMK A01 T00600029  RH  082%=      5-min Rain = 0
KKN1 230115Z 10005KT 06/03 A3012 RMK A01 T00600029  RH  082%=      5-min Rain = 0
KKN1 230120Z 10005KT 06/03 A3012 RMK A01 T00590028  RH  082%=      5-min Rain = 0
KKN1 230125Z 10005KT 06/03 A3012 RMK A01 T00590027  RH  081%=      5-min Rain = 0
KKN1 230130Z 11005KT 06/03 A3012 RMK A01 T00590029  RH  083%=      5-min Rain = 0
KKN1 230135Z 12005KT 06/03 A3012 RMK A01 T00580029  RH  083%=      5-min Rain = 0
KKN1 230140Z 11005KT 06/03 A3012 RMK A01 T00570028  RH  083%=      5-min Rain = 0
KKN1 230145Z 12005KT 06/03 A3012 RMK A01 T00570028  RH  083%=      5-min Rain = 0
KKN1 230150Z 12004KT 06/03 A3012 RMK A01 T00560028  RH  084%=      5-min Rain = 0
KKN1 230155Z 12004KT 06/03 A3012 RMK A01 T00560028  RH  084%=      5-min Rain = 0
KKN1 230200Z 11003KT 06/03 A3012 RMK A01 T00550029  RH  084%=      5-min Rain = 0
KKN1 230205Z 11003KT 06/03 A3012 RMK A01 T00550029  RH  085%=      5-min Rain = 0
KKN1 230210Z 11003KT 05/03 A3012 RMK A01 T00540029  RH  086%=      5-min Rain = 0
KKN1 230215Z 11003KT 05/03 A3012 RMK A01 T00520029  RH  086%=      5-min Rain = 0
KKN1 230220Z 12003KT 05/03 A3012 RMK A01 T00500028  RH  087%=      5-min Rain = 0
KKN1 230225Z 13004KT 05/03 A3012 RMK A01 T00490028  RH  088%=      5-min Rain = 0
KKN1 230230Z 13004KT 05/03 A3012 RMK A01 T00470029  RH  090%=      5-min Rain = 0
KKN1 230235Z 13003KT 05/03 A3012 RMK A01 T00450028  RH  090%=      5-min Rain = 0
KKN1 230240Z 12003KT 04/03 A3012 RMK A01 T00440027  RH  090%=      5-min Rain = 0
KKN1 230245Z 12004KT 04/03 A3012 RMK A01 T00420026  RH  090%=      5-min Rain = 0
KKN1 230250Z 12005KT 04/02 A3011 RMK A01 T00400024  RH  091%=      5-min Rain = 0
KKN1 230255Z 11005KT 04/02 A3011 RMK A01 T00390024  RH  091%=      5-min Rain = 0
KKN1 230300Z 11004KT 04/02 A3011 RMK A01 T00380023  RH  092%=      5-min Rain = 0
KKN1 230305Z 11004KT 04/02 A3011 RMK A01 T00370022  RH  092%=      5-min Rain = 0
KKN1 230310Z 12005KT 04/02 A3011 RMK A01 T00360022  RH  092%=      5-min Rain = 0
KKN1 230315Z 13005KT 04/02 A3011 RMK A01 T00370024  RH  093%=      5-min Rain = 0
KKN1 230320Z 13005KT 04/02 A3011 RMK A01 T00360023  RH  093%=      5-min Rain = 0
KKN1 230325Z 12005KT 04/02 A3011 RMK A01 T00360023  RH  093%=      5-min Rain = 0
KKN1 230330Z 12004KT 04/02 A3011 RMK A01 T00360023  RH  093%=      5-min Rain = 0
KKN1 230335Z 12004KT 04/02 A3011 RMK A01 T00360022  RH  093%=      5-min Rain = 0
KKN1 230340Z 13003KT 03/02 A3011 RMK A01 T00340021  RH  093%=      5-min Rain = 0
KKN1 230345Z 13003KT 03/02 A3011 RMK A01 T00330021  RH  093%=      5-min Rain = 0
KKN1 230350Z 13002KT 03/02 A3012 RMK A01 T00330020  RH  093%=      5-min Rain = 0
KKN1 230355Z 13002KT 03/02 A3012 RMK A01 T00310019  RH  093%=      5-min Rain = 0
KKN1 230400Z 13002KT 03/02 A3012 RMK A01 T00310018  RH  093%=      5-min Rain = 0
KKN1 230405Z 13002KT 03/02 A3012 RMK A01 T00310018  RH  093%=      5-min Rain = 0
KKN1 230410Z 12002KT 03/02 A3012 RMK A01 T00320018  RH  092%=      5-min Rain = 0
KKN1 230415Z 12002KT 03/02 A3012 RMK A01 T00310018  RH  092%=      5-min Rain = 0
KKN1 230420Z 13002KT 03/02 A3012 RMK A01 T00300018  RH  093%=      5-min Rain = 0
KKN1 230425Z 13002KT 03/02 A3012 RMK A01 T00290018  RH  094%=      5-min Rain = 0
KKN1 230430Z 12002KT 03/02 A3012 RMK A01 T00290018  RH  094%=      5-min Rain = 0
KKN1 230435Z 12003KT 03/02 A3012 RMK A01 T00280017  RH  094%=      5-min Rain = 0
KKN1 230440Z 12003KT 03/02 A3012 RMK A01 T00270017  RH  094%=      5-min Rain = 0
KKN1 230445Z 13003KT 03/02 A3012 RMK A01 T00270018  RH  095%=      5-min Rain = 0
KKN1 230450Z 13003KT 03/02 A3011 RMK A01 T00270018  RH  095%=      5-min Rain = 0
KKN1 230455Z 13003KT 03/02 A3011 RMK A01 T00260017  RH  095%=      5-min Rain = 0
KKN1 230500Z 13003KT 03/02 A3011 RMK A01 T00250016  RH  095%=      5-min Rain = 0
KKN1 230505Z 14002KT 02/01 A3012 RMK A01 T00230014  RH  095%=      5-min Rain = 0
KKN1 230510Z 15002KT 02/02 A3012 RMK A01 T00230015  RH  096%=      5-min Rain = 0
KKN1 230515Z 15001KT 02/02 A3012 RMK A01 T00240016  RH  096%=      5-min Rain = 0
KKN1 230520Z 16002KT 02/02 A3012 RMK A01 T00230016  RH  096%=      5-min Rain = 0
KKN1 230525Z 17002KT 02/02 A3012 RMK A01 T00220015  RH  097%=      5-min Rain = 0
KKN1 230530Z 17003KT 02/02 A3011 RMK A01 T00220015  RH  097%=      5-min Rain = 0
KKN1 230535Z 17001KT 02/01 A3012 RMK A01 T00200014  RH  097%=      5-min Rain = 0
KKN1 230540Z 17000KT 02/01 A3012 RMK A01 T00180011  RH  097%=      5-min Rain = 0
KKN1 230545Z 26001KT 01/01 A3013 RMK A01 T00140007  RH  097%=      5-min Rain = 0
KKN1 230550Z 25002KT 02/01 A3013 RMK A01 T00180013  RH  098%=      5-min Rain = 0
KKN1 230555Z 23004KT 02/01 A3012 RMK A01 T00190014  RH  098%=      5-min Rain = 0

Page generated in 0.009 seconds.